createdAt,value
2022-10-17T00:00:56.004Z,10.58
2022-10-17T00:04:09.103Z,10.61
2022-10-17T00:07:14.217Z,10.12
2022-10-17T00:10:22.640Z,10.19
2022-10-17T00:13:29.627Z,10.17
2022-10-17T00:16:37.720Z,10.23
2022-10-17T00:19:42.071Z,10.15
2022-10-17T00:22:47.703Z,10.06
2022-10-17T00:25:59.810Z,10.11
2022-10-17T00:29:05.797Z,10.39
2022-10-17T00:32:09.836Z,10.23
2022-10-17T00:35:14.067Z,10.40
2022-10-17T00:38:18.623Z,10.44
2022-10-17T00:41:25.576Z,10.36
2022-10-17T00:45:01.603Z,10.47
2022-10-17T00:48:10.060Z,10.48
2022-10-17T00:51:17.230Z,10.39
2022-10-17T00:54:28.983Z,9.91
2022-10-17T00:57:34.702Z,10.15
2022-10-17T01:00:40.894Z,10.15
2022-10-17T01:03:44.807Z,9.84
2022-10-17T01:06:49.179Z,9.69
2022-10-17T01:09:52.951Z,9.80
2022-10-17T01:13:10.099Z,9.62
2022-10-17T01:16:22.347Z,9.68
2022-10-17T01:20:01.003Z,9.59
2022-10-17T01:23:24.687Z,9.79
2022-10-17T01:26:46.224Z,9.62
2022-10-17T01:30:06.262Z,9.67
2022-10-17T01:33:17.368Z,9.79
2022-10-17T01:36:46.315Z,9.86
2022-10-17T01:39:55.247Z,9.67
2022-10-17T01:43:06.545Z,9.59
2022-10-17T01:46:17.674Z,9.39
2022-10-17T01:49:27.760Z,9.47
2022-10-17T01:52:39.945Z,9.41
2022-10-17T01:55:48.801Z,9.25
2022-10-17T01:58:59.832Z,9.28
2022-10-17T02:02:08.084Z,9.57
2022-10-17T02:05:14.328Z,9.45
2022-10-17T02:08:27.979Z,9.54
2022-10-17T02:11:33.905Z,9.59
2022-10-17T02:14:49.093Z,9.59
2022-10-17T02:18:08.099Z,9.69
2022-10-17T02:21:23.227Z,9.52
2022-10-17T02:24:39.713Z,9.66
2022-10-17T02:27:50.253Z,9.71
2022-10-17T02:31:05.791Z,9.43
2022-10-17T02:34:18.927Z,9.49
2022-10-17T02:37:30.869Z,9.36
2022-10-17T02:40:36.431Z,9.00
2022-10-17T02:43:45.446Z,9.02
2022-10-17T02:46:56.947Z,9.00
2022-10-17T02:50:01.483Z,9.15
2022-10-17T02:53:13.309Z,9.03
2022-10-17T02:56:21.350Z,9.21
2022-10-17T02:59:27.928Z,9.11
2022-10-17T03:02:40.689Z,9.10
2022-10-17T03:05:47.731Z,9.32
2022-10-17T03:08:54.666Z,9.22
2022-10-17T03:11:58.428Z,9.27
2022-10-17T03:15:02.678Z,9.42
2022-10-17T03:18:09.547Z,9.36
2022-10-17T03:21:14.852Z,9.33
2022-10-17T03:24:21.234Z,9.43
2022-10-17T03:27:25.921Z,9.23
2022-10-17T03:30:30.547Z,9.25
2022-10-17T03:33:38.489Z,9.10
2022-10-17T03:36:42.534Z,9.02
2022-10-17T03:39:48.484Z,9.15
2022-10-17T03:42:52.955Z,9.14
2022-10-17T03:45:58.157Z,9.24
2022-10-17T03:49:02.461Z,9.00
2022-10-17T03:52:07.824Z,9.13
2022-10-17T03:55:13.846Z,9.26
2022-10-17T03:58:19.875Z,9.27
2022-10-17T04:01:23.839Z,9.36
2022-10-17T04:04:28.810Z,9.13
2022-10-17T04:08:01.000Z,8.66
2022-10-17T04:11:29.743Z,8.74
2022-10-17T04:14:38.692Z,8.65
2022-10-17T04:17:44.190Z,8.86
2022-10-17T04:21:07.998Z,8.83
2022-10-17T04:24:14.154Z,8.83
2022-10-17T04:27:32.501Z,8.88
2022-10-17T04:30:43.615Z,8.70
2022-10-17T04:33:51.114Z,8.87
2022-10-17T04:36:55.767Z,8.66
2022-10-17T04:40:00.310Z,8.56
2022-10-17T04:43:09.579Z,8.42
2022-10-17T04:46:17.432Z,8.54
2022-10-17T04:49:23.101Z,8.42
2022-10-17T04:52:30.826Z,8.47
2022-10-17T04:55:39.224Z,8.58
2022-10-17T04:58:46.405Z,8.49
2022-10-17T05:01:52.066Z,8.24
2022-10-17T05:04:56.466Z,8.51
2022-10-17T05:08:03.093Z,8.71
2022-10-17T05:11:19.307Z,8.67
2022-10-17T05:14:25.428Z,8.60
2022-10-17T05:17:33.539Z,8.65
2022-10-17T05:20:39.011Z,8.30
2022-10-17T05:23:43.657Z,8.29
2022-10-17T05:26:47.634Z,8.34
2022-10-17T05:29:53.300Z,8.65
2022-10-17T05:33:04.418Z,8.82
2022-10-17T05:36:10.141Z,8.84
2022-10-17T05:39:20.156Z,8.84
2022-10-17T05:42:26.397Z,8.89
2022-10-17T05:45:33.121Z,8.97
2022-10-17T05:48:39.264Z,9.12
2022-10-17T05:51:46.126Z,9.19
2022-10-17T05:54:51.250Z,9.14
2022-10-17T05:57:55.290Z,9.21
2022-10-17T06:01:07.083Z,9.39
2022-10-17T06:04:14.972Z,9.57
2022-10-17T06:07:20.822Z,9.64
2022-10-17T06:10:25.623Z,9.79
2022-10-17T06:13:30.837Z,9.82
2022-10-17T06:16:43.583Z,10.15
2022-10-17T06:19:48.601Z,10.32
2022-10-17T06:22:56.117Z,10.29
2022-10-17T06:26:23.459Z,10.49
2022-10-17T06:29:28.993Z,10.55
2022-10-17T06:32:34.642Z,10.71
2022-10-17T06:35:38.898Z,10.82
2022-10-17T06:38:43.427Z,10.90
2022-10-17T06:41:57.845Z,10.96
2022-10-17T06:45:16.660Z,11.10
2022-10-17T06:48:49.245Z,11.06
2022-10-17T06:52:07.572Z,10.89
2022-10-17T06:56:22.956Z,11.17
2022-10-17T06:59:44.470Z,11.21
2022-10-17T07:02:54.529Z,11.41
2022-10-17T07:06:00.700Z,11.55
2022-10-17T07:09:07.013Z,11.69
2022-10-17T07:12:15.946Z,11.84
2022-10-17T07:15:23.576Z,11.99
2022-10-17T07:18:33.042Z,12.01
2022-10-17T07:21:40.773Z,12.14
2022-10-17T07:24:53.044Z,12.34
2022-10-17T07:28:23.515Z,12.38
2022-10-17T07:31:30.776Z,12.49
2022-10-17T07:34:38.286Z,12.66
2022-10-17T07:37:46.926Z,12.72
2022-10-17T07:40:57.236Z,12.82
2022-10-17T07:44:02.646Z,12.93
2022-10-17T07:47:11.669Z,12.98
2022-10-17T07:50:19.148Z,13.12
2022-10-17T07:53:25.120Z,13.24
2022-10-17T07:56:29.904Z,13.34
2022-10-17T07:59:40.568Z,13.39
2022-10-17T08:02:47.018Z,13.49
2022-10-17T08:05:53.267Z,13.58
2022-10-17T08:09:03.196Z,13.61
2022-10-17T08:12:09.229Z,13.68
2022-10-17T08:15:13.920Z,13.76
2022-10-17T08:18:17.902Z,13.82
2022-10-17T08:21:22.130Z,13.87
2022-10-17T08:24:28.918Z,13.92
2022-10-17T08:27:36.328Z,14.00
2022-10-17T08:30:43.078Z,14.03
2022-10-17T08:33:48.805Z,14.12
2022-10-17T08:36:52.774Z,14.16
2022-10-17T08:39:58.953Z,14.24
2022-10-17T08:43:19.395Z,14.30
2022-10-17T08:46:30.492Z,14.40
2022-10-17T08:49:43.265Z,14.41
2022-10-17T08:52:53.773Z,14.45
2022-10-17T08:56:02.812Z,14.54
2022-10-17T08:59:12.239Z,14.55
2022-10-17T09:02:34.885Z,14.55
2022-10-17T09:05:48.324Z,14.65
2022-10-17T09:09:04.777Z,14.72
2022-10-17T09:12:19.160Z,14.75
2022-10-17T09:15:39.071Z,14.76
2022-10-17T09:18:52.428Z,14.88
2022-10-17T09:22:01.019Z,14.92
2022-10-17T09:25:11.187Z,15.02
2022-10-17T09:32:45.123Z,15.15
2022-10-17T09:36:05.530Z,15.21
2022-10-17T09:39:25.828Z,15.26
2022-10-17T09:42:48.877Z,15.29
2022-10-17T09:46:21.812Z,15.33
2022-10-17T09:49:53.396Z,15.30
2022-10-17T09:53:23.974Z,15.33
2022-10-17T09:56:32.946Z,15.44
2022-10-17T09:59:54.480Z,15.42
2022-10-17T10:03:28.627Z,15.46
2022-10-17T10:07:29.443Z,15.53
2022-10-17T10:11:03.591Z,15.64
2022-10-17T10:14:28.106Z,15.71
2022-10-17T10:17:43.141Z,15.76
2022-10-17T10:20:47.063Z,15.81
2022-10-17T10:24:14.524Z,15.74
2022-10-17T10:27:30.374Z,15.82
2022-10-17T10:34:51.437Z,16.00
2022-10-17T10:38:01.131Z,16.09
2022-10-17T10:41:12.872Z,16.13
2022-10-17T10:44:23.110Z,16.17
2022-10-17T10:47:36.978Z,16.24
2022-10-17T10:50:45.577Z,16.29
2022-10-17T10:53:56.158Z,16.32
2022-10-17T10:57:04.700Z,16.39
2022-10-17T11:00:17.409Z,16.39
2022-10-17T11:03:28.978Z,16.44
2022-10-17T11:06:38.929Z,16.50
2022-10-17T11:09:53.095Z,16.52
2022-10-17T11:13:13.960Z,16.56
2022-10-17T11:16:29.626Z,16.57
2022-10-17T11:19:38.967Z,16.59
2022-10-17T11:22:48.289Z,16.64
2022-10-17T11:25:59.110Z,16.67
2022-10-17T11:29:09.228Z,16.69
2022-10-17T11:32:19.985Z,16.76
2022-10-17T11:35:28.336Z,16.89
2022-10-17T11:38:47.259Z,16.92
2022-10-17T11:41:55.484Z,17.05
2022-10-17T11:45:07.200Z,17.08
2022-10-17T11:48:15.111Z,17.03
2022-10-17T11:54:47.749Z,17.30
2022-10-17T11:58:12.279Z,17.28
2022-10-17T12:01:40.392Z,17.27
2022-10-17T12:04:56.956Z,17.44
2022-10-17T12:08:07.390Z,17.48
2022-10-17T12:11:22.086Z,17.38
2022-10-17T12:14:43.103Z,17.51
2022-10-17T12:17:56.848Z,17.61
2022-10-17T12:21:02.040Z,17.67
2022-10-17T12:24:06.473Z,17.66
2022-10-17T12:27:42.539Z,17.58
2022-10-17T12:30:55.871Z,17.55
2022-10-17T12:34:02.990Z,17.78
2022-10-17T12:37:15.060Z,17.79
2022-10-17T12:40:50.595Z,17.83
2022-10-17T12:43:55.500Z,17.82
2022-10-17T12:46:59.541Z,17.67
2022-10-17T12:50:05.604Z,17.76
2022-10-17T12:53:19.244Z,17.80
2022-10-17T12:56:33.229Z,17.85
2022-10-17T12:59:37.092Z,17.83
2022-10-17T13:02:42.861Z,17.93
2022-10-17T13:05:52.407Z,18.04
2022-10-17T13:09:03.550Z,18.10
2022-10-17T13:12:14.941Z,18.09
2022-10-17T13:15:21.074Z,18.14
2022-10-17T13:18:26.775Z,18.06
2022-10-17T13:21:32.089Z,18.13
2022-10-17T13:24:39.141Z,18.11
2022-10-17T13:27:43.007Z,18.10
2022-10-17T13:30:49.726Z,18.17
2022-10-17T13:33:57.972Z,18.13
2022-10-17T13:37:21.187Z,18.04
2022-10-17T13:40:44.716Z,18.01
2022-10-17T13:43:52.236Z,18.14
2022-10-17T13:46:56.615Z,18.02
2022-10-17T13:50:00.755Z,18.16
2022-10-17T13:53:16.998Z,18.17
2022-10-17T13:56:28.517Z,18.10
2022-10-17T13:59:40.054Z,18.07
2022-10-17T14:02:45.096Z,18.11
2022-10-17T14:06:14.123Z,18.01
2022-10-17T14:09:25.186Z,18.12
2022-10-17T14:12:29.088Z,18.13
2022-10-17T14:15:35.656Z,18.10
2022-10-17T14:18:44.491Z,18.10
2022-10-17T14:21:50.364Z,18.08
2022-10-17T14:25:00.260Z,18.07
2022-10-17T14:28:17.105Z,18.01
2022-10-17T14:31:31.574Z,17.98
2022-10-17T14:34:38.563Z,18.01
2022-10-17T14:37:46.743Z,18.00
2022-10-17T14:41:04.638Z,17.98
2022-10-17T14:44:23.587Z,17.91
2022-10-17T14:47:43.136Z,17.97
2022-10-17T14:51:10.062Z,17.87
2022-10-17T14:54:26.061Z,17.90
2022-10-17T14:57:44.575Z,17.87
2022-10-17T15:00:48.398Z,17.91
2022-10-17T15:03:52.720Z,17.89
2022-10-17T15:06:56.903Z,17.83
2022-10-17T15:10:01.028Z,17.79
2022-10-17T15:16:33.719Z,17.70
2022-10-17T15:19:37.502Z,17.68
2022-10-17T15:22:41.835Z,17.63
2022-10-17T15:25:45.667Z,17.60
2022-10-17T15:28:52.665Z,17.53
2022-10-17T15:31:56.451Z,17.48
2022-10-17T15:35:00.193Z,17.44
2022-10-17T15:38:04.956Z,17.41
2022-10-17T15:41:11.063Z,17.34
2022-10-17T15:44:16.210Z,17.29
2022-10-17T15:47:25.547Z,17.25
2022-10-17T15:50:30.765Z,17.19
2022-10-17T15:53:35.035Z,17.10
2022-10-17T15:56:40.267Z,17.08
2022-10-17T15:59:47.528Z,17.03
2022-10-17T16:02:51.785Z,16.92
2022-10-17T16:05:56.604Z,16.88
2022-10-17T16:09:00.726Z,16.69
2022-10-17T16:12:06.888Z,16.57
2022-10-17T16:15:15.907Z,16.36
2022-10-17T16:18:21.245Z,16.13
2022-10-17T16:21:29.014Z,16.06
2022-10-17T16:24:35.402Z,15.82
2022-10-17T16:27:45.135Z,15.70
2022-10-17T16:31:00.202Z,15.67
2022-10-17T16:34:06.524Z,15.64
2022-10-17T16:37:10.373Z,15.55
2022-10-17T16:40:14.208Z,15.44
2022-10-17T16:43:18.762Z,15.37
2022-10-17T16:46:25.071Z,15.26
2022-10-17T16:49:32.282Z,15.20
2022-10-17T16:52:36.015Z,15.06
2022-10-17T16:55:40.248Z,14.84
2022-10-17T16:58:44.360Z,14.70
2022-10-17T17:01:49.977Z,14.71
2022-10-17T17:04:53.568Z,14.44
2022-10-17T17:07:57.879Z,14.36
2022-10-17T17:11:01.605Z,14.10
2022-10-17T17:14:08.142Z,14.09
2022-10-17T17:17:19.669Z,13.81
2022-10-17T17:20:34.938Z,13.71
2022-10-17T17:23:40.582Z,13.61
2022-10-17T17:26:45.405Z,13.69
2022-10-17T17:29:49.249Z,13.46
2022-10-17T17:32:54.838Z,13.61
2022-10-17T17:36:00.260Z,13.54
2022-10-17T17:39:07.891Z,13.45
2022-10-17T17:42:16.082Z,13.29
2022-10-17T17:45:20.714Z,13.20
2022-10-17T17:48:25.748Z,13.19
2022-10-17T17:51:55.590Z,13.11
2022-10-17T17:55:00.699Z,13.02
2022-10-17T17:58:06.971Z,13.08
2022-10-17T18:01:15.058Z,12.88
2022-10-17T18:04:21.034Z,12.91
2022-10-17T18:07:24.877Z,12.75
2022-10-17T18:10:30.024Z,12.68
2022-10-17T18:13:33.594Z,12.71
2022-10-17T18:16:38.605Z,12.66
2022-10-17T18:19:43.926Z,12.35
2022-10-17T18:22:48.178Z,12.28
2022-10-17T18:25:56.240Z,11.97
2022-10-17T18:29:00.400Z,11.94
2022-10-17T18:32:33.231Z,11.86
2022-10-17T18:35:40.634Z,11.81
2022-10-17T18:38:44.595Z,11.78
2022-10-17T18:41:48.810Z,11.44
2022-10-17T18:44:53.260Z,11.45
2022-10-17T18:47:57.964Z,11.66
2022-10-17T18:51:06.595Z,11.37
2022-10-17T18:54:14.708Z,11.63
2022-10-17T18:57:21.445Z,11.61
2022-10-17T19:00:28.129Z,11.57
2022-10-17T19:03:32.430Z,11.30
2022-10-17T19:06:38.552Z,11.30
2022-10-17T19:09:43.126Z,11.10
2022-10-17T19:12:48.846Z,11.23
2022-10-17T19:15:52.760Z,11.35
2022-10-17T19:19:23.883Z,11.14
2022-10-17T19:22:31.301Z,11.29
2022-10-17T19:25:35.342Z,11.14
2022-10-17T19:28:42.577Z,11.07
2022-10-17T19:31:48.366Z,11.03
2022-10-17T19:35:24.572Z,10.92
2022-10-17T19:38:30.375Z,11.05
2022-10-17T19:41:36.048Z,10.91
2022-10-17T19:44:42.917Z,10.42
2022-10-17T19:47:46.862Z,10.61
2022-10-17T19:50:51.985Z,10.60
2022-10-17T19:54:00.466Z,10.59
2022-10-17T19:57:09.481Z,10.55
2022-10-17T20:00:15.186Z,10.48
2022-10-17T20:03:21.709Z,10.34
2022-10-17T20:06:27.629Z,10.31
2022-10-17T20:09:33.364Z,10.34
2022-10-17T20:12:37.294Z,10.42
2022-10-17T20:15:43.520Z,10.40
2022-10-17T20:18:47.100Z,10.23
2022-10-17T20:21:56.149Z,9.98
2022-10-17T20:25:01.542Z,10.18
2022-10-17T20:28:06.803Z,10.13
2022-10-17T20:31:11.355Z,10.04
2022-10-17T20:34:18.789Z,9.75
2022-10-17T20:37:23.221Z,10.11
2022-10-17T20:40:46.004Z,10.02
2022-10-17T20:43:52.795Z,9.99
2022-10-17T20:47:02.167Z,10.10
2022-10-17T20:50:07.977Z,10.02
2022-10-17T20:56:41.079Z,9.59
2022-10-17T20:59:47.152Z,9.88
2022-10-17T21:02:51.314Z,9.66
2022-10-17T21:05:57.688Z,9.69
2022-10-17T21:09:07.236Z,9.50
2022-10-17T21:12:18.190Z,9.39
2022-10-17T21:15:29.976Z,9.58
2022-10-17T21:18:41.783Z,9.64
2022-10-17T21:21:47.496Z,9.79
2022-10-17T21:24:52.250Z,9.81
2022-10-17T21:27:58.054Z,9.75
2022-10-17T21:31:16.877Z,9.27
2022-10-17T21:34:24.618Z,9.60
2022-10-17T21:37:30.008Z,9.69
2022-10-17T21:40:34.876Z,9.61
2022-10-17T21:43:44.998Z,9.18
2022-10-17T21:46:53.740Z,9.21
2022-10-17T21:50:02.511Z,9.13
2022-10-17T21:53:07.470Z,9.03
2022-10-17T21:56:13.627Z,9.00
2022-10-17T21:59:19.447Z,8.80
2022-10-17T22:02:24.411Z,8.93
2022-10-17T22:05:27.952Z,8.88
2022-10-17T22:08:32.981Z,9.03
2022-10-17T22:11:37.967Z,8.98
2022-10-17T22:14:45.680Z,8.77
2022-10-17T22:17:49.460Z,8.46
2022-10-17T22:20:54.356Z,8.77
2022-10-17T22:24:00.852Z,8.66
2022-10-17T22:27:09.871Z,8.80
2022-10-17T22:30:15.648Z,8.71
2022-10-17T22:33:22.492Z,8.55
2022-10-17T22:36:28.149Z,8.51
2022-10-17T22:39:32.177Z,8.61
2022-10-17T22:42:36.738Z,8.62
2022-10-17T22:45:45.208Z,8.59
2022-10-17T22:48:48.849Z,8.51
2022-10-17T22:51:55.253Z,8.73
2022-10-17T22:55:00.404Z,8.67
2022-10-17T22:58:04.937Z,8.42
2022-10-17T23:01:15.758Z,8.38
2022-10-17T23:04:19.590Z,8.59
2022-10-17T23:07:23.280Z,8.46
2022-10-17T23:10:27.622Z,8.33
2022-10-17T23:13:34.166Z,8.26
2022-10-17T23:16:40.387Z,8.22
2022-10-17T23:19:44.408Z,8.35
2022-10-17T23:22:50.340Z,8.21
2022-10-17T23:25:54.135Z,8.27
2022-10-17T23:28:58.312Z,8.33
2022-10-17T23:32:03.966Z,8.35
2022-10-17T23:35:10.898Z,8.29
2022-10-17T23:38:16.614Z,8.37
2022-10-17T23:41:20.783Z,8.35
2022-10-17T23:44:25.616Z,8.09
2022-10-17T23:47:33.697Z,7.67
2022-10-17T23:50:39.123Z,7.85
2022-10-17T23:53:50.727Z,7.71
2022-10-17T23:56:54.511Z,7.79
2022-10-17T23:59:58.609Z,7.79
